Airfield :
LOGIN :

Register | Disclaimer

   EN    FR    IT 

 










Legend :    VFR   Marginal VFR   IFR   Intensive IFR   Very Intensive IFR
Visi :
Ceiling :
>= 8 km
>= 3000ft
5 to 8 km
1000 to 3000 ft
1500m to 5 km
500 to 1000 ft
800 to 1500m
200 to 500 ft
< 800m
< 200 ft
Symbols :   Thunderstorms  Fog  Heavy snow  Heavy precipitations  Wind > 20 kt
SIGMETs :     Misc.  Thunderstorms  Icing  Turbulence  Mountain Waves  Volcanic Ashes






- Airport Elevation : 63 ft
- IATA code : BZM


EHWO - Woensdrecht Airbase

CURRENT METAR :
  • 070759Z AUTO 08002KT 7000 BR BKN030 OVC034 M01/M02 Q1027 WHT

EXPIRED METARs :
  • 070755Z AUTO VRB02KT 8000 BR OVC034 M01/M03 Q1027 BLU
  • 070739Z AUTO 08002KT 5000 BR BKN034 M02/M03 Q1027 WHT
  • 070725Z AUTO 09002KT 5000 BR FEW035 M03/M03 Q1027 WHT
  • 070718Z AUTO VRB02KT 4200 BR FEW035 M03/M04 Q1027 GRN
  • 070700Z AUTO VRB02KT 4300 BR FEW034 M04/M05 Q1027 GRN
  • 070645Z AUTO VRB02KT 0250 -SG NCD M05/M05 Q1027 RED
  • 070625Z AUTO 09002KT 0450 FZFG NCD M05/M06 Q1027 RED
  • 070615Z AUTO 09002KT 0900 FZFG NCD M05/M06 Q1027 AMB
  • 070559Z AUTO 09002KT 0500 FZFG NCD M05/M06 Q1027 RED
  • 070551Z AUTO 07002KT 0500 FZFG NCD M05/M06 Q1027 RED
  • 070530Z AUTO VRB01KT 2700 BR NCD M05/M06 Q1027 YLO
  • 070517Z AUTO VRB02KT 0800 -SG NCD M05/M06 Q1027 AMB

Expired Forecast.



MET'MAP, your aeronautical weather chart ! - Copyright ORBIFLY December 2007 - Disclaimer

ORBIFLY MET'MAP TEAM :

Programming & Development : Alexandra Zaïnal
Concept & original design : Baudouin d'Aumeries
Assistance for programming : Marc-Olivier Méhu
Technical & hardware support : Manuel Goepfert

Contact : metmap@orbifly.com




SOURCES & CREDITS :

   NOAA